^^
Station Historical Data
 
Daily Summary for November 15, 2018 Units:  Metric    English   Both
« Previous Day
Next Day »
Daily Weekly Monthly Yearly Custom
  Current: High: Low: Average:
Temperature: -10.8 °C -17.8 °C -14.8 °C -13.2 °C
Dew Point: -13.1 °C -17.8 °C -15.3 °C -14.3 °C
Humidity: 76% Humidity% 75% 88%
Wind Speed: 6km/h 0km/h 0km/h 12.4km/h
Wind Gust: 0.8km/h 0km/h - -
WindSE - - SE
Pressure: 34628.6 hPa 0 hPa 34628.6 hPa -
Precipitation: 0 mm      
Historical Graphs
 
 
Tabular Data for November 15, 2018
Time Temperature Dew Point Pressure Wind Wind Speed Wind Gust Humidity Rainfall Rate (Hourly) solar Conditions
-17.8 °C -17.8 °C 0 hPa Calm     Humidity% 0 mm SolarRadiationWatts/m^2 W/m2 Conditions
00:03 -13.5 °C -14.2 °C 34659.1 hPa Calm     92% 0 mm 0.00 W/m2 OVC
00:09 -13.6 °C -14.2 °C 34659.1 hPa Calm     93% 0 mm 0.00 W/m2 OVC
00:13 -13.7 °C -14.2 °C 34659.1 hPa Calm     93% 0 mm 0.00 W/m2 OVC
00:19 -13.7 °C -14.3 °C 34659.1 hPa Calm     93% 0 mm 0.00 W/m2 OVC
00:23 -13.7 °C -14.3 °C 34662.5 hPa Calm     93% 0 mm 0.00 W/m2 OVC
00:29 -13.7 °C -14.3 °C 34662.5 hPa Calm     93% 0 mm 0.00 W/m2 OVC
00:33 -13.8 °C -14.3 °C 34662.5 hPa Calm     93% 0 mm 0.00 W/m2 OVC
00:39 -13.8 °C -14.3 °C 34662.5 hPa Calm     93% 0 mm 0.00 W/m2 OVC
00:44 -13.8 °C -14.3 °C 34662.5 hPa SE 9 km/h 1.3 km/h 93% 0 mm 0.00 W/m2 OVC
00:49 -13.8 °C -14.3 °C 34662.5 hPa SE 10.9 km/h 1.6 km/h 93% 0 mm 0.00 W/m2 OVC
00:54 -13.8 °C -14.3 °C 34659.1 hPa SE 11.9 km/h 4.7 km/h 93% 0 mm 0.00 W/m2 OVC
00:59 -13.8 °C -14.3 °C 34659.1 hPa SE 11.9 km/h 6.8 km/h 94% 0 mm 0.00 W/m2 OVC
01:04 -13.8 °C -14.3 °C 34659.1 hPa SSE 15 km/h 5.5 km/h 94% 0 mm 0.00 W/m2 OVC
01:09 -13.8 °C -14.3 °C 34662.5 hPa SE 9 km/h 4.7 km/h 94% 0 mm 0.00 W/m2 OVC
01:14 -13.8 °C -14.3 °C 34655.7 hPa SE 11.9 km/h 1.6 km/h 94% 0 mm 0.00 W/m2 OVC
01:19 -13.8 °C -14.3 °C 34655.7 hPa Calm     94% 0 mm 0.00 W/m2 OVC
01:24 -13.8 °C -14.3 °C 34652.3 hPa Calm     94% 0 mm 0.00 W/m2 OVC
01:29 -13.8 °C -14.3 °C 34655.7 hPa SE 11.9 km/h 5.5 km/h 94% 0 mm 0.00 W/m2 OVC
01:35 -13.8 °C -14.3 °C 34655.7 hPa SE 9 km/h 2.6 km/h 94% 0 mm 0.00 W/m2 OVC
01:39 -13.9 °C -14.4 °C 34652.3 hPa East 11.9 km/h 2.6 km/h 94% 0 mm 0.00 W/m2 OVC
01:44 -13.9 °C -14.4 °C 34652.3 hPa Calm     94% 0 mm 0.00 W/m2 OVC
01:48 -13.9 °C -14.4 °C 34652.3 hPa SE 5.5 km/h 1.3 km/h 94% 0 mm 0.00 W/m2 OVC
01:53 -13.9 °C -14.4 °C 34652.3 hPa Calm     94% 0 mm 0.00 W/m2 OVC
01:58 -14 °C -14.5 °C 34652.3 hPa Calm     94% 0 mm 0.00 W/m2 OVC
02:03 -14 °C -14.5 °C 34652.3 hPa Calm     94% 0 mm 0.00 W/m2 OVC
02:08 -14.1 °C -14.6 °C 34652.3 hPa SE 10.9 km/h 1 km/h 94% 0 mm 0.00 W/m2 OVC
02:14 -14.1 °C -14.6 °C 34648.9 hPa Calm     94% 0 mm 0.00 W/m2 OVC
02:18 -14.1 °C -14.6 °C 34652.3 hPa SE 9 km/h 2.9 km/h 94% 0 mm 0.00 W/m2 OVC
02:23 -14.1 °C -14.6 °C 34652.3 hPa ESE 10.9 km/h 2.6 km/h 94% 0 mm 0.00 W/m2 OVC
02:29 -14.1 °C -14.6 °C 34648.9 hPa Calm     94% 0 mm 0.00 W/m2 OVC
02:34 -14.1 °C -14.6 °C 34648.9 hPa Calm     94% 0 mm 0.00 W/m2 OVC
02:38 -14.2 °C -14.7 °C 34652.3 hPa Calm     94% 0 mm 0.00 W/m2 OVC
02:44 -14.2 °C -14.7 °C 34648.9 hPa Calm     94% 0 mm 0.00 W/m2 OVC
02:48 -14.2 °C -14.7 °C 34648.9 hPa SE 11.9 km/h 3.4 km/h 94% 0 mm 0.00 W/m2 OVC
02:54 -14.2 °C -14.7 °C 34648.9 hPa SE 15 km/h 6.8 km/h 94% 0 mm 0.00 W/m2 OVC
02:58 -14.2 °C -14.7 °C 34645.6 hPa SE 6 km/h   94% 0 mm 0.00 W/m2 OVC
03:03 -14.2 °C -14.7 °C 34645.6 hPa SE 9 km/h   94% 0 mm 0.00 W/m2 OVC
03:09 -14.2 °C -14.7 °C 34642.2 hPa SE 2.6 km/h   94% 0 mm 0.00 W/m2 OVC
03:14 -14.3 °C -14.8 °C 34642.2 hPa ESE 11.9 km/h 3.9 km/h 94% 0 mm 0.00 W/m2 OVC
03:19 -14.3 °C -14.8 °C 34645.6 hPa SE 6 km/h   94% 0 mm 0.00 W/m2 OVC
03:24 -14.3 °C -14.8 °C 34645.6 hPa Calm     94% 0 mm 0.00 W/m2 OVC
03:29 -14.3 °C -14.8 °C 34642.2 hPa SE 13.5 km/h 6 km/h 94% 0 mm 0.00 W/m2 OVC
03:34 -14.3 °C -14.8 °C 34642.2 hPa SE 9 km/h 6.9 km/h 94% 0 mm 0.00 W/m2 OVC
03:39 -14.3 °C -14.8 °C 34642.2 hPa SE 6 km/h 0.8 km/h 94% 0 mm 0.00 W/m2 OVC
03:44 -14.3 °C -14.8 °C 34642.2 hPa SE 11.9 km/h 6.4 km/h 94% 0 mm 0.00 W/m2 OVC
03:49 -14.3 °C -14.8 °C 34642.2 hPa SE 9 km/h 2.6 km/h 94% 0 mm 0.00 W/m2 OVC
03:54 -14.4 °C -14.8 °C 34642.2 hPa SE 3.1 km/h   95% 0 mm 0.00 W/m2 OVC
03:58 -14.4 °C -14.8 °C 34642.2 hPa SE 13.5 km/h 4.7 km/h 95% 0 mm 0.00 W/m2 OVC
04:04 -14.3 °C -14.8 °C 34642.2 hPa SSE 16.1 km/h 10.6 km/h 94% 0 mm 0.00 W/m2 OVC
04:09 -14.3 °C -14.7 °C 34642.2 hPa SE 13.5 km/h 1.3 km/h 95% 0 mm 0.00 W/m2 OVC
04:13 -14.3 °C -14.8 °C 34642.2 hPa SE 13.5 km/h 5.6 km/h 94% 0 mm 0.00 W/m2 OVC
04:18 -14.3 °C -14.8 °C 34638.8 hPa South 13.5 km/h 5.5 km/h 94% 0 mm 0.00 W/m2 OVC
04:23 -14.3 °C -14.8 °C 34638.8 hPa South 16.1 km/h 8.5 km/h 94% 0 mm 0.00 W/m2 OVC
04:28 -14.3 °C -14.8 °C 34638.8 hPa SSE 6 km/h   94% 0 mm 0.00 W/m2 OVC
04:34 -14.3 °C -14.8 °C 34638.8 hPa SSE 9 km/h 6.3 km/h 94% 0 mm 0.00 W/m2 OVC
04:38 -14.3 °C -14.8 °C 34638.8 hPa SSE 16.1 km/h 5.6 km/h 94% 0 mm 0.00 W/m2 OVC
04:44 -14.3 °C -14.8 °C 34638.8 hPa SE 6 km/h   94% 0 mm 0.00 W/m2 OVC
04:48 -14.3 °C -14.8 °C 34638.8 hPa South 17.9 km/h 6.9 km/h 94% 0 mm 0.00 W/m2 OVC
04:54 -14.3 °C -14.8 °C 34635.4 hPa SSE 15 km/h 8.5 km/h 94% 0 mm 0.00 W/m2 OVC
04:58 -14.3 °C -14.8 °C 34638.8 hPa SE 11.9 km/h 3.9 km/h 94% 0 mm 0.00 W/m2 OVC
05:04 -14.3 °C -14.8 °C 34638.8 hPa SSE 24.3 km/h 12.9 km/h 94% 0 mm 0.00 W/m2 OVC
05:08 -14.2 °C -14.7 °C 34635.4 hPa SSE 13.5 km/h 3.7 km/h 94% 0 mm 0.00 W/m2 OVC
05:14 -14.2 °C -14.8 °C 34635.4 hPa SSE 18.8 km/h 9 km/h 93% 0 mm 0.00 W/m2 OVC
05:18 -14.2 °C -14.8 °C 34635.4 hPa SSE 18.8 km/h 9 km/h 93% 0 mm 0.00 W/m2 OVC
05:23 -14.2 °C -14.8 °C 34635.4 hPa SSE 15 km/h 9.3 km/h 93% 0 mm 0.00 W/m2 OVC
05:29 -14.2 °C -14.8 °C 34638.8 hPa SSE 15 km/h 0.3 km/h 93% 0 mm 0.00 W/m2 OVC
05:34 -14.2 °C -14.8 °C 34638.8 hPa SE 15 km/h 7.6 km/h 93% 0 mm 0.00 W/m2 OVC
05:37 -14.2 °C -14.8 °C 34635.4 hPa South 15 km/h 10.1 km/h 93% 0 mm 0.00 W/m2 OVC
05:44 -14.2 °C -14.8 °C 34638.8 hPa SE 17.9 km/h 7.7 km/h 92% 0 mm 0.00 W/m2 OVC
05:48 -14.1 °C -14.8 °C 34635.4 hPa SSE 15 km/h 9 km/h 92% 0 mm 0.00 W/m2 OVC
05:53 -14.1 °C -14.8 °C 34638.8 hPa SSE 11.9 km/h 3.1 km/h 92% 0 mm 0.00 W/m2 OVC
05:59 -14.2 °C -14.8 °C 34642.2 hPa SE 11.9 km/h 6.4 km/h 92% 0 mm 0.00 W/m2 OVC
06:04 -14.2 °C -14.8 °C 34642.2 hPa SSE 11.9 km/h 7.6 km/h 92% 0 mm 0.00 W/m2 OVC
06:09 -14.2 °C -14.8 °C 34642.2 hPa SSE 9 km/h 3.7 km/h 92% 0 mm 0.00 W/m2 OVC
06:14 -14.2 °C -14.8 °C 34642.2 hPa SE 16.1 km/h 10.1 km/h 92% 0 mm 0.00 W/m2 OVC
06:19 -14.2 °C -14.9 °C 34642.2 hPa SSE 17.9 km/h 12.2 km/h 92% 0 mm 0.00 W/m2 OVC
06:24 -14.2 °C -14.9 °C 34642.2 hPa SE 15 km/h 8.5 km/h 92% 0 mm 0.00 W/m2 OVC
06:29 -14.2 °C -14.9 °C 34645.6 hPa SSE 15 km/h 9.3 km/h 92% 0 mm 0.00 W/m2 OVC
06:34 -14.2 °C -14.9 °C 34645.6 hPa SSE 10.9 km/h 3.7 km/h 92% 0 mm 0.00 W/m2 OVC
06:39 -14.2 °C -14.9 °C 34645.6 hPa SSE 9 km/h 3.9 km/h 92% 0 mm 0.00 W/m2 OVC
06:44 -14.2 °C -14.9 °C 34648.9 hPa South 15 km/h 0.8 km/h 92% 0 mm 0.00 W/m2 OVC
06:48 -14.3 °C -14.9 °C 34648.9 hPa South 9 km/h 5.1 km/h 92% 0 mm 0.00 W/m2 OVC
06:54 -14.3 °C -14.9 °C 34652.3 hPa Calm     92% 0 mm 0.00 W/m2 OVC
06:58 -14.3 °C -15 °C 34652.3 hPa Calm     92% 0 mm 0.00 W/m2 OVC
07:04 -14.4 °C -15.1 °C 34652.3 hPa SSE 9 km/h 4.7 km/h 92% 0 mm 0.00 W/m2 OVC
07:09 -14.4 °C -15.1 °C 34648.9 hPa SE 9 km/h 6.4 km/h 92% 0 mm 0.00 W/m2 OVC
07:13 -14.6 °C -15.2 °C 34645.6 hPa SE 11.9 km/h 3.9 km/h 92% 0 mm 0.00 W/m2 OVC
07:19 -14.6 °C -15.2 °C 34648.9 hPa ESE 11.9 km/h 6.3 km/h 93% 0 mm 0.00 W/m2 OVC
07:23 -14.6 °C -15.2 °C 34652.3 hPa SSE 15 km/h 4.2 km/h 93% 0 mm 0.00 W/m2 OVC
07:29 -14.6 °C -15.2 °C 34652.3 hPa SE 11.9 km/h 7.6 km/h 93% 0 mm 0.00 W/m2 OVC
07:34 -14.7 °C -15.3 °C 34655.7 hPa SE 11.9 km/h 6 km/h 93% 0 mm 0.00 W/m2 OVC
07:38 -14.7 °C -15.3 °C 34655.7 hPa SE 8 km/h   93% 0 mm 0.00 W/m2 OVC
07:44 -14.7 °C -15.3 °C 34655.7 hPa SSE 3.1 km/h   93% 0 mm 0.00 W/m2 OVC
07:48 -14.8 °C -15.3 °C 34659.1 hPa SSE 11.9 km/h 7.7 km/h 93% 0 mm 0.00 W/m2 OVC
07:53 -14.8 °C -15.3 °C 34659.1 hPa ESE 11.9 km/h 5 km/h 93% 0 mm 0.00 W/m2 OVC
07:59 -14.8 °C -15.2 °C 34659.1 hPa Calm     94% 0 mm 0.00 W/m2 OVC
08:04 -14.8 °C -15.3 °C 34662.5 hPa SE 15 km/h 8.2 km/h 94% 0 mm 5.00 W/m2 OVC
08:09 -14.8 °C -15.3 °C 34662.5 hPa SSE 15 km/h 5.6 km/h 94% 0 mm 7.00 W/m2 OVC
08:13 -14.8 °C -15.3 °C 34662.5 hPa SE 9 km/h 4.7 km/h 94% 0 mm 11.00 W/m2 OVC
08:19 -14.8 °C -15.2 °C 34662.5 hPa SE 11.9 km/h 6.9 km/h 94% 0 mm 14.00 W/m2 OVC
08:24 -14.8 °C -15.2 °C 34665.9 hPa ESE 13.5 km/h 6.3 km/h 94% 0 mm 18.00 W/m2 OVC
08:29 -14.7 °C -15.2 °C 34665.9 hPa SE 15 km/h 3.7 km/h 94% 0 mm 19.00 W/m2 OVC
08:34 -14.7 °C -15.2 °C 34665.9 hPa SSE 17.9 km/h 11.6 km/h 94% 0 mm 23.00 W/m2 OVC
08:39 -14.6 °C -15.1 °C 34662.5 hPa SE 16.1 km/h 5.6 km/h 94% 0 mm 26.00 W/m2 BKN
08:44 -14.6 °C -15.1 °C 34665.9 hPa SSE 18.8 km/h 13.2 km/h 94% 0 mm 28.00 W/m2 BKN
08:49 -14.6 °C -15.1 °C 34665.9 hPa SE 9 km/h 1.6 km/h 94% 0 mm 30.00 W/m2 BKN
08:54 -14.6 °C -15.1 °C 34669.3 hPa SE 11.9 km/h 5.6 km/h 94% 0 mm 28.00 W/m2 BKN
08:58 -14.6 °C -15.1 °C 34669.3 hPa ESE 18.8 km/h 8.2 km/h 94% 0 mm 30.00 W/m2 BKN
09:04 -14.5 °C -15.1 °C 34669.3 hPa SSE 18.8 km/h 12.2 km/h 93% 0 mm 37.00 W/m2 BKN
09:09 -14.5 °C -15.1 °C 34669.3 hPa East 18.8 km/h 9.3 km/h 93% 0 mm 42.00 W/m2 BKN
09:13 -14.5 °C -15.1 °C 34669.3 hPa SE 15 km/h 9.8 km/h 93% 0 mm 53.00 W/m2 BKN
09:19 -14.4 °C -15 °C 34672.6 hPa SE 16.1 km/h 10.1 km/h 93% 0 mm 60.00 W/m2 BKN
09:24 -14.3 °C -14.9 °C 34669.3 hPa SE 17.9 km/h 6.8 km/h 93% 0 mm 70.00 W/m2 BKN
09:29 -14.3 °C -14.9 °C 34669.3 hPa ESE 20.9 km/h 11.1 km/h 93% 0 mm 83.00 W/m2 BKN
09:33 -14.2 °C -14.8 °C 34669.3 hPa SSE 23.8 km/h 12.2 km/h 93% 0 mm 97.00 W/m2 BKN
09:39 -14.2 °C -14.8 °C 34672.6 hPa ESE 18.8 km/h 14.2 km/h 93% 0 mm 98.00 W/m2 BKN
09:44 -14.1 °C -14.7 °C 34669.3 hPa SE 18.8 km/h 11.6 km/h 93% 0 mm 120.00 W/m2 BKN
09:49 -14.1 °C -14.8 °C 34669.3 hPa SE 23.8 km/h 10.9 km/h 92% 0 mm 127.00 W/m2 BKN
09:54 -14 °C -14.7 °C 34669.3 hPa SE 24.3 km/h 15 km/h 92% 0 mm 107.00 W/m2 BKN
09:59 -13.9 °C -14.6 °C 34669.3 hPa SSE 21.6 km/h 14.2 km/h 92% 0 mm 148.00 W/m2 BKN
10:04 -13.9 °C -14.6 °C 34672.6 hPa SE 15 km/h 7.7 km/h 92% 0 mm 142.00 W/m2 BKN
10:09 -13.8 °C -14.5 °C 34669.3 hPa SE 16.1 km/h 8.5 km/h 92% 0 mm 160.00 W/m2 BKN
10:13 -13.7 °C -14.4 °C 34669.3 hPa SE 18.8 km/h 9 km/h 92% 0 mm 153.00 W/m2 BKN
10:19 -13.6 °C -14.4 °C 34669.3 hPa SE 17.9 km/h 11.4 km/h 91% 0 mm 142.00 W/m2 BKN
10:24 -13.6 °C -14.3 °C 34665.9 hPa South 21.6 km/h 14 km/h 91% 0 mm 179.00 W/m2 BKN
10:29 -13.4 °C -14.3 °C 34669.3 hPa ESE 21.6 km/h 12.9 km/h 90% 0 mm 202.00 W/m2 BKN
10:34 -13.4 °C -14.3 °C 34665.9 hPa SSE 23.8 km/h 13.2 km/h 90% 0 mm 172.00 W/m2 BKN
10:39 -13.3 °C -14.3 °C 34665.9 hPa SSE 24.3 km/h 14.5 km/h 89% 0 mm 197.00 W/m2 BKN
10:44 -13.2 °C -14.1 °C 34669.3 hPa SE 15 km/h 9.7 km/h 89% 0 mm 207.00 W/m2 BKN
10:49 -13.1 °C -14.1 °C 34669.3 hPa SSE 13.5 km/h 8.5 km/h 89% 0 mm 220.00 W/m2 BKN
10:54 -12.9 °C -14 °C 34665.9 hPa SSE 11.9 km/h 5.5 km/h 88% 0 mm 225.00 W/m2 BKN
10:58 -12.9 °C -13.9 °C 34665.9 hPa SE 18.8 km/h 10.9 km/h 88% 0 mm 223.00 W/m2 BKN
11:03 -12.8 °C -13.9 °C 34665.9 hPa SE 24.3 km/h 14.8 km/h 87% 0 mm 230.00 W/m2 BKN
11:08 -12.7 °C -13.9 °C 34665.9 hPa South 16.1 km/h 9.3 km/h 86% 0 mm 237.00 W/m2 BKN
11:14 -12.6 °C -13.8 °C 34662.5 hPa SSE 15 km/h 8 km/h 86% 0 mm 248.00 W/m2 BKN
11:18 -12.5 °C -13.8 °C 34665.9 hPa SSE 18.8 km/h 14.8 km/h 85% 0 mm 251.00 W/m2 BKN
11:24 -12.4 °C -13.7 °C 34665.9 hPa SSE 10.9 km/h 5.6 km/h 85% 0 mm 255.00 W/m2 BKN
11:28 -12.3 °C -13.6 °C 34662.5 hPa SSE 10.9 km/h 6.3 km/h 85% 0 mm 258.00 W/m2 BKN
11:33 -12.1 °C -13.7 °C 34665.9 hPa SSE 23.8 km/h 10.1 km/h 83% 0 mm 260.00 W/m2 BKN
11:38 -12.2 °C -13.7 °C 34662.5 hPa SSE 21.6 km/h 8 km/h 83% 0 mm 264.00 W/m2 SCT
11:43 -12.2 °C -13.7 °C 34659.1 hPa SSE 18.8 km/h 6.3 km/h 83% 0 mm 265.00 W/m2 SCT
11:48 -12.1 °C -13.7 °C 34659.1 hPa South 18.8 km/h 7.2 km/h 83% 0 mm 271.00 W/m2 SCT
11:53 -12.1 °C -13.6 °C 34655.7 hPa South 16.1 km/h 13.2 km/h 83% 0 mm 272.00 W/m2 SCT
11:59 -12.1 °C -13.6 °C 34655.7 hPa SSE 15 km/h 9.3 km/h 83% 0 mm 276.00 W/m2 SCT
12:03 -11.9 °C -13.4 °C 34652.3 hPa SSE 11.9 km/h 1.8 km/h 83% 0 mm 276.00 W/m2 SCT
12:08 -11.8 °C -13.4 °C 34648.9 hPa SSE 16.1 km/h 9.3 km/h 82% 0 mm 279.00 W/m2 SCT
12:14 -11.7 °C -13.3 °C 34648.9 hPa SE 9 km/h 3.9 km/h 82% 0 mm 281.00 W/m2 SCT
12:18 -11.6 °C -13.4 °C 34648.9 hPa SE 9 km/h 4.2 km/h 81% 0 mm 281.00 W/m2 SCT
12:24 -11.6 °C -13.3 °C 34645.6 hPa SSE 9 km/h 1.8 km/h 81% 0 mm 283.00 W/m2 SCT
12:28 -11.6 °C -13.3 °C 34645.6 hPa SE 21.6 km/h 8.5 km/h 81% 0 mm 283.00 W/m2 SCT
12:34 -11.5 °C -13.4 °C 34645.6 hPa SSE 18.8 km/h 8.9 km/h 80% 0 mm 283.00 W/m2 SCT
12:38 -11.4 °C -13.3 °C 34645.6 hPa SSE 21.6 km/h 11.4 km/h 80% 0 mm 281.00 W/m2 BKN
12:44 -11.3 °C -13.2 °C 34645.6 hPa SE 16.1 km/h 8.5 km/h 80% 0 mm 281.00 W/m2 BKN
12:49 -11.3 °C -13.2 °C 34642.2 hPa SE 11.9 km/h 6.8 km/h 80% 0 mm 281.00 W/m2 BKN
12:54 -11.2 °C -13.2 °C 34642.2 hPa ESE 17.9 km/h 8.5 km/h 79% 0 mm 281.00 W/m2 BKN
12:59 -11.2 °C -13.2 °C 34642.2 hPa SSE 18.8 km/h 12.2 km/h 79% 0 mm 276.00 W/m2 BKN
13:03 -11.2 °C -13.2 °C 34642.2 hPa East 13.5 km/h 3.7 km/h 79% 0 mm 260.00 W/m2 BKN
13:09 -11.1 °C -13 °C 34638.8 hPa SE 18.8 km/h 10.3 km/h 79% 0 mm 239.00 W/m2 BKN
13:14 -11.1 °C -13.2 °C 34638.8 hPa SE 17.9 km/h 8.2 km/h 78% 0 mm 234.00 W/m2 BKN
13:19 -11.1 °C -13.1 °C 34635.4 hPa SE 18.8 km/h 10.6 km/h 79% 0 mm 234.00 W/m2 BKN
13:23 -11.2 °C -13.2 °C 34635.4 hPa SE 17.9 km/h 6.4 km/h 78% 0 mm 246.00 W/m2 BKN
13:28 -11.1 °C -13.1 °C 34638.8 hPa East 18.8 km/h 9.3 km/h 79% 0 mm 255.00 W/m2 BKN
13:33 -11.1 °C -13 °C 34635.4 hPa SE 16.1 km/h 5.6 km/h 79% 0 mm 262.00 W/m2 BKN
13:39 -11 °C -13.1 °C 34635.4 hPa SSE 15 km/h 3.7 km/h 78% 0 mm 213.00 W/m2 CLR
13:43 -11 °C -13.1 °C 34635.4 hPa SE 16.1 km/h 10.6 km/h 78% 0 mm 255.00 W/m2 CLR
13:48 -10.9 °C -13.2 °C 34632 hPa South 15 km/h 9.7 km/h 77% 0 mm 251.00 W/m2 CLR
13:54 -10.9 °C -13.1 °C 34632 hPa ESE 11.9 km/h 5 km/h 77% 0 mm 246.00 W/m2 CLR
13:58 -10.8 °C -13 °C 34632 hPa East 13.5 km/h 7.7 km/h 77% 0 mm 241.00 W/m2 CLR
14:04 -10.7 °C -13 °C 34632 hPa SE 15 km/h 10.6 km/h 76% 0 mm 234.00 W/m2 CLR
14:08 -10.7 °C -13 °C 34635.4 hPa SSE 16.1 km/h 9.7 km/h 76% 0 mm 229.00 W/m2 CLR
14:13 -10.7 °C -13 °C 34635.4 hPa SE 17.9 km/h 4.2 km/h 76% 0 mm 221.00 W/m2 CLR
14:19 -10.7 °C -13 °C 34635.4 hPa SE 18.8 km/h 9.3 km/h 76% 0 mm 214.00 W/m2 CLR
14:23 -10.7 °C -13 °C 34635.4 hPa ESE 11.9 km/h 5.1 km/h 76% 0 mm 207.00 W/m2 CLR
14:29 -10.7 °C -12.9 °C 34635.4 hPa ENE 15 km/h 6 km/h 76% 0 mm 197.00 W/m2 CLR
14:34 -10.7 °C -12.9 °C 34638.8 hPa East 16.1 km/h 12.7 km/h 76% 0 mm 190.00 W/m2 CLR
14:37 -10.7 °C -12.9 °C 34635.4 hPa SE 16.1 km/h 10.6 km/h 76% 0 mm 185.00 W/m2 CLR
14:43 -10.7 °C -12.9 °C 34635.4 hPa SE 17.9 km/h 10.6 km/h 76% 0 mm 174.00 W/m2 CLR
14:49 -10.7 °C -12.9 °C 34635.4 hPa SE 11.9 km/h 8.9 km/h 76% 0 mm 163.00 W/m2 CLR
14:54 -10.7 °C -12.9 °C 34635.4 hPa South 11.9 km/h 7.6 km/h 76% 0 mm 155.00 W/m2 CLR
14:59 -10.7 °C -12.9 °C 34635.4 hPa South 17.9 km/h 7.7 km/h 76% 0 mm 146.00 W/m2 CLR
15:04 -10.7 °C -12.9 °C 34635.4 hPa South 15 km/h 5.5 km/h 76% 0 mm 137.00 W/m2 CLR
15:09 -10.7 °C -12.8 °C 34635.4 hPa SE 9 km/h 3.9 km/h 77% 0 mm 127.00 W/m2 CLR
15:14 -10.7 °C -12.8 °C 34632 hPa SE 15 km/h 3.9 km/h 77% 0 mm 32.00 W/m2 CLR
15:19 -10.7 °C -12.8 °C 34635.4 hPa South 11.9 km/h 6.3 km/h 77% 0 mm 30.00 W/m2 SCT
15:24 -10.7 °C -12.8 °C 34632 hPa SE 15 km/h 6.3 km/h 77% 0 mm 28.00 W/m2 BKN
15:29 -10.7 °C -12.9 °C 34635.4 hPa SE 6 km/h   76% 0 mm 26.00 W/m2 BKN
15:34 -10.7 °C -12.9 °C 34635.4 hPa SSE 16.1 km/h 10.3 km/h 76% 0 mm 25.00 W/m2 BKN
15:39 -10.7 °C -13.1 °C 34632 hPa SE 11.9 km/h 6 km/h 75% 0 mm 23.00 W/m2 BKN
15:44 -10.7 °C -13.1 °C 34632 hPa ESE 9 km/h 2.9 km/h 75% 0 mm 23.00 W/m2 BKN
15:49 -10.7 °C -13.1 °C 34632 hPa SSE 9 km/h 0.3 km/h 75% 0 mm 21.00 W/m2 SCT
15:54 -10.7 °C -13.1 °C 34632 hPa SE 10.9 km/h 2.1 km/h 75% 0 mm 21.00 W/m2 SCT
15:59 -10.7 °C -13 °C 34632 hPa SE 10.9 km/h 6.9 km/h 76% 0 mm 19.00 W/m2 SCT
16:03 -10.7 °C -13 °C 34632 hPa SE 15 km/h 4.7 km/h 76% 0 mm 18.00 W/m2 SCT
16:09 -10.7 °C -13 °C 34632 hPa Calm     76% 0 mm 16.00 W/m2 SCT
16:12 -10.7 °C -13 °C 34628.6 hPa SE 9 km/h 1 km/h 76% 0 mm 16.00 W/m2 FEW
16:18 -10.8 °C -13.1 °C 34628.6 hPa SE 6 km/h 0.8 km/h 76% 0 mm 14.00 W/m2 CLR
Juneau County Weather
Compliments of Weather Underground - 2.75 mb